Time;durP1;ratioP1;P1;durP2;ratioP2;P2;SDS_P1;SDS_P2;PMS_P1;PMS_P2;Temp;Humidity;BMP_temperature;BMP_pressure;BME280_temperature;BME280_humidity;BME280_pressure;Samples;Min_cycle;Max_cycle;Signal;HPM_P1;HPM_P2
2022/10/02 00:01:39;;;;;;;22.17;4.20;;;10.70;99.90;;;;;;4944879;29;20138;-60
2022/10/02 00:04:12;;;;;;;20.90;4.90;;;10.70;99.90;;;;;;4927316;28;21722;-60
2022/10/02 00:06:44;;;;;;;16.33;4.25;;;10.70;99.90;;;;;;4941220;28;20094;-60
2022/10/02 00:09:31;;;;;;;15.30;4.13;;;10.70;99.90;;;;;;5035978;28;20103;-60
2022/10/02 00:11:58;;;;;;;20.58;4.40;;;10.70;99.90;;;;;;5035494;28;20444;-61
2022/10/02 00:14:27;;;;;;;22.30;5.32;;;10.60;99.90;;;;;;5041081;28;20049;-60
2022/10/02 00:16:56;;;;;;;15.07;3.97;;;10.50;99.90;;;;;;5047134;28;20456;-57
2022/10/02 00:19:26;;;;;;;16.50;3.97;;;10.50;99.90;;;;;;5061322;28;20056;-60
2022/10/02 00:22:29;;;;;;;18.40;3.55;;;10.50;99.90;;;;;;5072578;28;20052;-60
2022/10/02 00:25:07;;;;;;;19.17;4.55;;;10.40;99.90;;;;;;5072794;28;20377;-60
2022/10/02 00:27:45;;;;;;;16.33;4.47;;;10.50;99.90;;;;;;5061633;28;20051;-60
2022/10/02 00:30:14;;;;;;;13.63;3.60;;;10.40;99.90;;;;;;5060757;28;20109;-60
2022/10/02 00:32:49;;;;;;;16.60;3.67;;;10.50;99.90;;;;;;5051195;28;20435;-62
2022/10/02 00:35:59;;;;;;;21.77;4.60;;;10.50;99.90;;;;;;5044479;28;20049;-61
2022/10/02 00:38:43;;;;;;;17.88;4.18;;;10.50;99.90;;;;;;5060942;28;20051;-61
2022/10/02 00:41:24;;;;;;;23.08;4.20;;;10.40;99.90;;;;;;5063983;28;20051;-61
2022/10/02 00:43:59;;;;;;;21.60;3.60;;;10.40;99.90;;;;;;5049839;28;20067;-60
2022/10/02 00:46:50;;;;;;;20.13;4.25;;;10.40;99.90;;;;;;5074302;28;20051;-61
2022/10/02 00:49:41;;;;;;;19.95;4.50;;;10.40;99.90;;;;;;5041412;28;20235;-60
2022/10/02 00:52:37;;;;;;;15.60;4.07;;;10.30;99.90;;;;;;5055519;28;20395;-61
2022/10/02 00:55:24;;;;;;;20.67;4.32;;;10.30;99.90;;;;;;5056177;28;20252;-62
2022/10/02 00:57:55;;;;;;;13.20;3.95;;;10.30;99.90;;;;;;5052599;28;20053;-61
2022/10/02 01:00:22;;;;;;;21.17;3.67;;;10.30;99.90;;;;;;5064980;28;20048;-61
2022/10/02 01:03:16;;;;;;;17.17;4.13;;;10.30;99.90;;;;;;5064195;28;20056;-60
2022/10/02 01:05:42;;;;;;;21.00;4.38;;;10.40;99.90;;;;;;4963361;28;20540;-60
2022/10/02 01:08:08;;;;;;;17.38;3.67;;;10.30;99.90;;;;;;4962272;28;20065;-61
2022/10/02 01:10:36;;;;;;;22.30;4.65;;;10.40;99.90;;;;;;4964322;28;20053;-62
2022/10/02 01:13:03;;;;;;;18.55;3.72;;;10.40;99.90;;;;;;4942899;28;20144;-60
2022/10/02 01:15:33;;;;;;;22.80;3.58;;;10.40;99.90;;;;;;4962080;28;20086;-61
2022/10/02 01:18:01;;;;;;;19.85;3.25;;;10.50;99.90;;;;;;4971596;28;20490;-61
2022/10/02 01:20:40;;;;;;;17.48;2.80;;;10.50;99.90;;;;;;4968480;28;20149;-61
2022/10/02 01:23:46;;;;;;;15.75;3.20;;;10.60;99.90;;;;;;4971647;28;20062;-60
2022/10/02 01:26:12;;;;;;;14.13;3.15;;;10.70;99.90;;;;;;4953453;28;20566;-61
2022/10/02 01:28:38;;;;;;;16.25;3.35;;;10.70;99.90;;;;;;4978071;28;20077;-61
2022/10/02 01:31:07;;;;;;;16.45;2.92;;;10.80;99.90;;;;;;4970187;28;20051;-60
2022/10/02 01:33:34;;;;;;;13.43;3.05;;;10.80;99.90;;;;;;4947481;28;20054;-60
2022/10/02 01:36:00;;;;;;;18.60;3.30;;;10.80;99.90;;;;;;4940102;28;20465;-60
2022/10/02 01:38:27;;;;;;;14.70;2.97;;;10.80;99.90;;;;;;4968201;28;20089;-58
2022/10/02 01:40:52;;;;;;;16.02;2.85;;;10.80;99.90;;;;;;4933393;28;20842;-58
2022/10/02 01:43:27;;;;;;;13.70;2.65;;;10.80;99.90;;;;;;5016628;28;20060;-59
2022/10/02 01:46:09;;;;;;;9.95;2.90;;;10.80;99.90;;;;;;5043506;28;20053;-59
2022/10/02 01:48:43;;;;;;;13.45;2.85;;;10.70;99.90;;;;;;5041282;28;20087;-59
2022/10/02 01:51:30;;;;;;;13.10;3.15;;;10.70;99.90;;;;;;5039379;28;20060;-59
2022/10/02 01:54:24;;;;;;;14.27;2.95;;;10.60;99.90;;;;;;5037351;28;20057;-59
2022/10/02 01:56:50;;;;;;;;;;;10.60;99.90;;;;;;5038546;28;20057;-59
2022/10/02 02:00:00;;;;;;;16.27;3.95;;;10.60;99.90;;;;;;5025735;28;19977;-58
2022/10/02 02:02:41;;;;;;;17.95;2.75;;;10.60;99.90;;;;;;5051468;28;20050;-59
2022/10/02 02:05:26;;;;;;;13.90;3.25;;;10.60;99.90;;;;;;5033919;28;20045;-59
2022/10/02 02:08:16;;;;;;;13.25;3.33;;;10.60;99.90;;;;;;5039489;28;20044;-59
2022/10/02 02:10:55;;;;;;;12.57;2.75;;;10.60;99.90;;;;;;4964406;28;20058;-59
2022/10/02 02:13:45;;;;;;;16.23;3.03;;;10.70;99.90;;;;;;4960853;28;20375;-59
2022/10/02 02:16:32;;;;;;;11.15;3.10;;;10.70;99.90;;;;;;4950968;28;20737;-59
2022/10/02 02:19:12;;;;;;;18.42;3.70;;;10.70;99.90;;;;;;4962093;28;20293;-59
2022/10/02 02:21:45;;;;;;;15.07;3.50;;;10.70;99.90;;;;;;4966009;28;20050;-59
2022/10/02 02:24:20;;;;;;;;;;;10.70;99.90;;;;;;4960110;28;20174;-58
2022/10/02 02:26:47;;;;;;;14.32;3.38;;;10.80;99.90;;;;;;4961323;28;19926;-59
2022/10/02 02:29:17;;;;;;;17.92;4.07;;;10.70;99.90;;;;;;4962892;28;20293;-59
2022/10/02 02:31:49;;;;;;;14.13;3.30;;;10.70;99.90;;;;;;4945305;28;20118;-57
2022/10/02 02:34:20;;;;;;;22.77;5.03;;;10.60;99.90;;;;;;4961444;28;20077;-58
2022/10/02 02:36:51;;;;;;;16.15;3.47;;;10.60;99.90;;;;;;4962513;28;20057;-58
2022/10/02 02:39:36;;;;;;;13.40;3.45;;;10.50;99.90;;;;;;4959978;28;20142;-58
2022/10/02 02:42:06;;;;;;;15.93;3.90;;;10.50;99.90;;;;;;4964085;28;20058;-59
2022/10/02 02:44:42;;;;;;;17.25;3.50;;;10.50;99.90;;;;;;4964654;28;20050;-59
2022/10/02 02:47:22;;;;;;;14.82;3.63;;;10.50;99.90;;;;;;4979523;28;20069;-58
2022/10/02 02:49:51;;;;;;;18.42;3.53;;;10.40;99.90;;;;;;5028544;28;20120;-59
2022/10/02 02:52:34;;;;;;;14.63;3.60;;;10.50;99.90;;;;;;5046549;28;20048;-58
2022/10/02 02:55:22;;;;;;;17.25;4.10;;;10.50;99.90;;;;;;5046758;28;20057;-59
2022/10/02 02:58:19;;;;;;;18.67;3.70;;;10.40;99.90;;;;;;5038411;28;20049;-59
2022/10/02 03:00:45;;;;;;;24.27;4.35;;;10.50;99.90;;;;;;5014924;28;20066;-58
2022/10/02 03:03:11;;;;;;;19.60;5.03;;;10.50;99.90;;;;;;5006748;28;20069;-58
2022/10/02 03:05:42;;;;;;;20.60;4.38;;;10.50;99.90;;;;;;5008488;28;20081;-58
2022/10/02 03:08:22;;;;;;;17.50;3.78;;;10.50;99.90;;;;;;4982572;28;20092;-59
2022/10/02 03:11:16;;;;;;;17.25;3.47;;;10.40;99.90;;;;;;5007083;28;20112;-59
2022/10/02 03:13:48;;;;;;;14.60;3.75;;;10.50;99.90;;;;;;5003599;28;20061;-59
2022/10/02 03:16:44;;;;;;;15.40;3.85;;;10.50;99.90;;;;;;5010760;28;20053;-58
2022/10/02 03:19:46;;;;;;;16.77;3.30;;;10.50;99.90;;;;;;5022823;28;20363;-59
2022/10/02 03:22:24;;;;;;;17.70;3.10;;;10.50;99.90;;;;;;4929993;29;20066;-59
2022/10/02 03:25:09;;;;;;;18.00;4.00;;;10.50;99.90;;;;;;4943611;29;20434;-58
2022/10/02 03:28:03;;;;;;;15.00;3.45;;;10.40;99.90;;;;;;4936059;29;20214;-59
2022/10/02 03:30:30;;;;;;;19.15;3.80;;;10.40;99.90;;;;;;4930566;29;20431;-58
2022/10/02 03:32:59;;;;;;;24.67;3.80;;;10.50;99.90;;;;;;4941952;28;20064;-59
2022/10/02 03:35:27;;;;;;;17.42;3.38;;;10.40;99.90;;;;;;4943965;29;20046;-58
2022/10/02 03:38:00;;;;;;;19.77;3.55;;;10.40;99.90;;;;;;4940279;28;20137;-59
2022/10/02 03:40:26;;;;;;;16.85;3.67;;;10.50;99.90;;;;;;4963233;28;20047;-62
2022/10/02 03:42:57;;;;;;;17.40;4.10;;;10.50;99.90;;;;;;4964655;28;20074;-58
2022/10/02 03:45:23;;;;;;;14.57;3.65;;;10.50;99.90;;;;;;4963905;28;20278;-58
2022/10/02 03:47:54;;;;;;;18.30;2.97;;;10.40;99.90;;;;;;4964963;28;20051;-58
2022/10/02 03:50:20;;;;;;;12.75;3.13;;;10.50;99.90;;;;;;4963924;28;20511;-58
2022/10/02 03:52:51;;;;;;;22.63;3.78;;;10.50;99.90;;;;;;4963816;28;20062;-59
2022/10/02 03:55:16;;;;;;;15.93;3.10;;;10.40;99.90;;;;;;4962851;28;20102;-58
2022/10/02 03:57:45;;;;;;;16.02;3.10;;;10.40;99.90;;;;;;4974335;28;20057;-58
2022/10/02 04:00:23;;;;;;;16.98;2.70;;;10.40;99.90;;;;;;5046220;28;20049;-59
2022/10/02 04:02:57;;;;;;;14.98;3.08;;;10.40;99.90;;;;;;5049230;28;20063;-58
2022/10/02 04:05:39;;;;;;;16.88;2.95;;;10.40;99.90;;;;;;5051050;28;20199;-59
2022/10/02 04:08:36;;;;;;;18.77;2.95;;;10.40;99.90;;;;;;5048071;28;20045;-58
2022/10/02 04:11:22;;;;;;;17.65;3.70;;;10.40;99.90;;;;;;5031529;28;20057;-58
2022/10/02 04:14:45;;;;;;;19.40;3.60;;;10.30;99.90;;;;;;5049235;28;20057;-59
2022/10/02 04:17:19;;;;;;;19.63;3.28;;;10.30;99.90;;;;;;4968390;28;20093;-58
2022/10/02 04:19:50;;;;;;;17.48;3.55;;;10.30;99.90;;;;;;4979663;28;20571;-58
2022/10/02 04:22:56;;;;;;;16.15;3.33;;;10.20;99.90;;;;;;4963671;28;20054;-59
2022/10/02 04:25:27;;;;;;;17.80;3.45;;;10.20;99.90;;;;;;4962038;28;20063;-59
2022/10/02 04:28:01;;;;;;;17.35;3.25;;;10.20;99.90;;;;;;4971971;28;20097;-58
2022/10/02 04:30:28;;;;;;;18.20;3.50;;;10.10;99.90;;;;;;4963723;28;20549;-58
2022/10/02 04:33:05;;;;;;;17.50;3.33;;;10.10;99.90;;;;;;4959074;28;20055;-58
2022/10/02 04:35:42;;;;;;;16.33;3.40;;;10.10;99.90;;;;;;4956146;28;20424;-56
2022/10/02 04:38:46;;;;;;;16.40;3.22;;;10.10;99.90;;;;;;4975728;28;20120;-58
2022/10/02 04:41:45;;;;;;;14.85;3.53;;;10.10;99.90;;;;;;4974085;28;20453;-58
2022/10/02 04:44:25;;;;;;;19.38;2.92;;;10.10;99.90;;;;;;4965998;28;20394;-58
2022/10/02 04:47:16;;;;;;;13.77;3.03;;;10.10;99.90;;;;;;4957142;28;20613;-59
2022/10/02 04:50:23;;;;;;;17.17;3.13;;;10.00;99.90;;;;;;4959911;28;20513;-58
2022/10/02 04:53:13;;;;;;;21.35;3.10;;;10.00;99.90;;;;;;4962106;28;20450;-58
2022/10/02 04:56:02;;;;;;;20.83;3.33;;;10.00;99.90;;;;;;4981267;28;20525;-58
2022/10/02 04:59:00;;;;;;;14.82;3.10;;;10.00;99.90;;;;;;4996844;28;20140;-59
2022/10/02 05:01:57;;;;;;;14.82;3.42;;;9.90;99.90;;;;;;4982886;28;20620;-58
2022/10/02 05:04:46;;;;;;;16.75;3.47;;;9.90;99.90;;;;;;4946658;28;20058;-58
2022/10/02 05:07:34;;;;;;;17.90;2.95;;;9.90;99.90;;;;;;4931061;28;20058;-58
2022/10/02 05:10:27;;;;;;;23.13;3.75;;;9.80;99.90;;;;;;4946927;28;20070;-58
2022/10/02 05:13:37;;;;;;;15.98;3.90;;;9.90;99.90;;;;;;4962480;28;20057;-59
2022/10/02 05:16:40;;;;;;;17.10;3.60;;;9.80;99.90;;;;;;4932812;29;20048;-60
2022/10/02 05:19:50;;;;;;;22.08;3.28;;;9.80;99.90;;;;;;4907941;29;20089;-58
2022/10/02 05:22:24;;;;;;;17.85;3.50;;;9.80;99.90;;;;;;4903950;29;20128;-58
2022/10/02 05:25:10;;;;;;;15.07;2.72;;;9.80;99.90;;;;;;4889672;29;20145;-58
2022/10/02 05:28:16;;;;;;;18.45;3.47;;;9.70;99.90;;;;;;4905486;29;20056;-58
2022/10/02 05:31:30;;;;;;;18.80;3.63;;;9.70;99.90;;;;;;4934605;28;20158;-58
2022/10/02 05:34:14;;;;;;;17.15;4.13;;;9.70;99.90;;;;;;4936597;29;20059;-60
2022/10/02 05:37:32;;;;;;;16.65;3.30;;;9.70;99.90;;;;;;4919124;29;20095;-58
2022/10/02 05:39:58;;;;;;;19.70;3.47;;;9.70;99.90;;;;;;4850649;29;20135;-59
2022/10/02 05:42:39;;;;;;;14.27;3.47;;;9.60;99.90;;;;;;4849902;29;20047;-58
2022/10/02 05:45:24;;;;;;;13.77;3.00;;;9.70;99.90;;;;;;4848521;29;20087;-59
2022/10/02 05:47:52;;;;;;;16.27;3.33;;;9.70;99.90;;;;;;4865170;29;21420;-59
2022/10/02 05:50:24;;;;;;;16.05;3.10;;;9.70;99.90;;;;;;4829445;29;20106;-58
2022/10/02 05:53:07;;;;;;;15.85;3.53;;;9.70;99.90;;;;;;4850128;29;20443;-58
2022/10/02 05:55:38;;;;;;;13.57;2.78;;;9.70;99.90;;;;;;4879217;29;20662;-58
2022/10/02 05:58:32;;;;;;;18.98;3.60;;;9.70;99.90;;;;;;4862341;29;20061;-58
2022/10/02 06:01:05;;;;;;;;;;;9.80;99.90;;;;;;4864125;29;20116;-58
2022/10/02 06:03:50;;;;;;;16.63;3.10;;;9.90;99.90;;;;;;4877368;29;19927;-59
2022/10/02 06:06:19;;;;;;;19.60;3.00;;;9.90;99.90;;;;;;4877128;29;20555;-59
2022/10/02 06:08:48;;;;;;;13.95;2.50;;;10.10;99.90;;;;;;4876551;29;20598;-59
2022/10/02 06:11:38;;;;;;;17.55;2.83;;;10.50;99.90;;;;;;4923221;28;20134;-58
2022/10/02 06:14:15;;;;;;;11.60;2.88;;;10.90;99.90;;;;;;4928775;28;20142;-59
2022/10/02 06:16:50;;;;;;;21.40;4.13;;;11.40;99.90;;;;;;4993574;28;20048;-58
2022/10/02 06:19:32;;;;;;;14.30;3.28;;;12.00;99.90;;;;;;5048911;28;20557;-59
2022/10/02 06:22:16;;;;;;;14.05;2.72;;;12.40;99.90;;;;;;5045843;28;20044;-55
2022/10/02 06:24:56;;;;;;;15.35;3.10;;;13.00;99.90;;;;;;5027194;28;20040;-59
2022/10/02 06:27:37;;;;;;;15.05;2.80;;;13.30;99.90;;;;;;5054095;28;20048;-59
2022/10/02 06:30:07;;;;;;;18.63;3.05;;;13.50;99.90;;;;;;5048287;28;20123;-59
2022/10/02 06:32:49;;;;;;;18.08;3.97;;;13.60;99.90;;;;;;5050900;28;20048;-59
2022/10/02 06:35:23;;;;;;;13.80;2.78;;;13.60;99.90;;;;;;5053493;28;20060;-59
2022/10/02 06:37:57;;;;;;;16.55;3.50;;;13.60;99.90;;;;;;5049533;28;20033;-59
2022/10/02 06:40:55;;;;;;;15.30;2.70;;;13.60;99.90;;;;;;5035977;28;20127;-58
2022/10/02 06:43:21;;;;;;;17.35;3.28;;;13.70;99.90;;;;;;5051328;28;20041;-59
2022/10/02 06:46:02;;;;;;;18.60;3.15;;;13.70;99.90;;;;;;5061881;28;20098;-59
2022/10/02 06:49:03;;;;;;;13.25;3.17;;;13.80;99.90;;;;;;5031839;28;20512;-59
2022/10/02 06:52:14;;;;;;;19.70;3.78;;;13.90;99.90;;;;;;5046217;28;20044;-60
2022/10/02 06:54:59;;;;;;;16.85;3.35;;;13.80;99.90;;;;;;5054632;28;20839;-61
2022/10/02 06:57:47;;;;;;;14.13;3.47;;;13.70;99.90;;;;;;5051114;28;20148;-64
2022/10/02 07:00:22;;;;;;;13.52;3.20;;;13.70;99.90;;;;;;5035715;28;20207;-60
2022/10/02 07:03:01;;;;;;;17.45;4.57;;;13.60;99.90;;;;;;5032729;28;20080;-60
2022/10/02 07:05:46;;;;;;;17.40;3.33;;;13.60;99.90;;;;;;5051479;28;20105;-60
2022/10/02 07:08:31;;;;;;;14.30;3.45;;;13.50;99.90;;;;;;5052974;28;20122;-60
2022/10/02 07:10:56;;;;;;;10.77;3.60;;;13.30;99.90;;;;;;5050685;28;20040;-60
2022/10/02 07:13:34;;;;;;;20.85;4.20;;;13.20;99.90;;;;;;5050781;28;20093;-60
2022/10/02 07:16:13;;;;;;;12.85;3.45;;;13.00;99.90;;;;;;5049834;28;20582;-61
2022/10/02 07:19:06;;;;;;;14.45;3.03;;;12.90;99.90;;;;;;5050667;28;20059;-61
2022/10/02 07:21:55;;;;;;;15.43;3.60;;;12.90;99.90;;;;;;5046696;28;20164;-61
2022/10/02 07:24:39;;;;;;;14.63;3.85;;;13.10;99.90;;;;;;5025058;28;20141;-60
2022/10/02 07:27:10;;;;;;;18.58;3.22;;;13.30;99.90;;;;;;5050223;28;20181;-61
2022/10/02 07:30:05;;;;;;;13.48;2.97;;;13.50;99.90;;;;;;5047026;28;20131;-61
2022/10/02 07:32:36;;;;;;;12.05;2.95;;;13.50;99.90;;;;;;5055153;28;20036;-60
2022/10/02 07:35:18;;;;;;;18.13;4.20;;;13.30;99.90;;;;;;5052310;28;20049;-60
2022/10/02 07:37:54;;;;;;;11.57;2.97;;;13.20;99.90;;;;;;5048355;28;20151;-59
2022/10/02 07:40:54;;;;;;;13.35;2.80;;;13.10;99.90;;;;;;5049795;28;20049;-59
2022/10/02 07:43:57;;;;;;;20.15;3.92;;;13.00;99.90;;;;;;5055057;28;20454;-59
2022/10/02 07:46:48;;;;;;;19.30;4.78;;;13.30;99.90;;;;;;5051699;28;20754;-60
2022/10/02 07:49:17;;;;;;;11.23;2.80;;;13.70;99.90;;;;;;5055325;28;20134;-59
2022/10/02 07:52:13;;;;;;;9.93;2.63;;;13.90;99.90;;;;;;5048862;28;20048;-60
2022/10/02 07:54:57;;;;;;;10.48;3.10;;;13.80;99.90;;;;;;5033709;28;20155;-60
2022/10/02 07:57:45;;;;;;;12.52;3.08;;;13.80;99.90;;;;;;5050058;28;20040;-60
2022/10/02 08:00:13;;;;;;;10.88;3.03;;;13.90;99.90;;;;;;5052997;28;20086;-60
2022/10/02 08:02:57;;;;;;;10.52;3.20;;;14.10;99.90;;;;;;5050242;28;20493;-61
2022/10/02 08:05:28;;;;;;;13.20;3.17;;;14.30;99.90;;;;;;5049885;28;20499;-61
2022/10/02 08:08:02;;;;;;;13.30;3.33;;;14.60;99.90;;;;;;5052229;28;20541;-62
2022/10/02 08:10:37;;;;;;;19.13;3.53;;;14.90;99.90;;;;;;5051134;28;20072;-60
2022/10/02 08:13:24;;;;;;;13.18;3.28;;;15.00;99.90;;;;;;5048861;28;20048;-63
2022/10/02 08:15:54;;;;;;;15.52;3.60;;;15.10;99.90;;;;;;5051666;28;20549;-62
2022/10/02 08:18:28;;;;;;;12.15;3.25;;;15.40;99.90;;;;;;5033132;28;20341;-61
2022/10/02 08:20:54;;;;;;;14.27;3.40;;;15.50;99.90;;;;;;5032964;28;20049;-61
2022/10/02 08:23:40;;;;;;;15.65;3.17;;;15.70;99.90;;;;;;5018784;28;20061;-60
2022/10/02 08:26:15;;;;;;;18.90;3.95;;;15.70;99.90;;;;;;5029769;28;20060;-61
2022/10/02 08:29:15;;;;;;;19.50;3.20;;;15.80;99.90;;;;;;5033342;28;20088;-61
2022/10/02 08:31:41;;;;;;;16.63;4.22;;;16.00;99.90;;;;;;4954880;28;20102;-60
2022/10/02 08:34:23;;;;;;;15.80;4.50;;;16.00;99.90;;;;;;4956682;28;20484;-61
2022/10/02 08:36:57;;;;;;;13.80;3.28;;;16.00;99.90;;;;;;4963073;28;20198;-61
2022/10/02 08:39:57;;;;;;;14.35;3.25;;;15.80;99.90;;;;;;4963139;28;20057;-61
2022/10/02 08:43:11;;;;;;;17.30;4.25;;;15.60;99.90;;;;;;4923059;28;20601;-61
2022/10/02 08:45:55;;;;;;;15.32;3.83;;;15.60;99.90;;;;;;4941686;28;20059;-62
2022/10/02 08:48:44;;;;;;;16.45;4.28;;;15.70;99.90;;;;;;4939039;28;20051;-61
2022/10/02 08:51:21;;;;;;;17.48;4.20;;;15.80;99.90;;;;;;4925785;29;20051;-62
2022/10/02 08:54:05;;;;;;;18.75;3.60;;;15.80;99.90;;;;;;4939996;28;20419;-62
2022/10/02 08:56:57;;;;;;;18.58;3.72;;;15.90;99.90;;;;;;4942294;28;20517;-62
2022/10/02 08:59:34;;;;;;;17.42;3.72;;;16.00;99.90;;;;;;4939512;28;20059;-62
2022/10/02 09:02:50;;;;;;;15.23;3.45;;;16.10;99.90;;;;;;4925525;29;20103;-62
2022/10/02 09:05:38;;;;;;;15.88;4.00;;;16.10;99.90;;;;;;4938031;28;20058;-63
2022/10/02 09:08:07;;;;;;;19.35;4.45;;;16.20;99.90;;;;;;4928434;28;20105;-62
2022/10/02 09:10:57;;;;;;;21.98;4.70;;;16.30;99.90;;;;;;4974094;28;20129;-63
2022/10/02 09:13:50;;;;;;;15.68;4.13;;;16.40;99.90;;;;;;4977452;28;20058;-63
2022/10/02 09:16:23;;;;;;;18.27;4.75;;;16.50;99.90;;;;;;4976719;28;20055;-63
2022/10/02 09:19:19;;;;;;;15.00;3.42;;;16.60;99.90;;;;;;5011099;28;20057;-62
2022/10/02 09:22:04;;;;;;;15.40;3.72;;;16.60;99.90;;;;;;5036004;28;20068;-64
2022/10/02 09:25:05;;;;;;;17.50;3.97;;;16.60;99.90;;;;;;5036640;28;20092;-64
2022/10/02 09:28:04;;;;;;;16.38;3.35;;;16.70;99.90;;;;;;4995096;28;21314;-63
2022/10/02 09:31:02;;;;;;;17.98;3.22;;;16.80;99.90;;;;;;4995933;28;20587;-63
2022/10/02 09:33:48;;;;;;;18.67;4.03;;;16.90;99.90;;;;;;4992622;28;20077;-64
2022/10/02 09:36:49;;;;;;;15.82;3.08;;;16.80;99.90;;;;;;4993096;28;20045;-63
2022/10/02 09:39:43;;;;;;;16.38;3.55;;;16.70;99.90;;;;;;4978566;28;20521;-63
2022/10/02 09:42:27;;;;;;;13.73;3.03;;;16.60;99.90;;;;;;5018128;28;20057;-64
2022/10/02 09:45:14;;;;;;;16.13;3.25;;;16.70;99.90;;;;;;5050244;28;20068;-63
2022/10/02 09:48:05;;;;;;;12.05;3.10;;;16.60;99.90;;;;;;5051879;28;20109;-63
2022/10/02 09:51:10;;;;;;;10.35;2.90;;;16.60;99.90;;;;;;5043722;28;20041;-65
2022/10/02 09:53:57;;;;;;;15.57;3.58;;;16.60;99.90;;;;;;5047616;28;20543;-63
2022/10/02 09:56:43;;;;;;;15.90;3.50;;;16.60;99.90;;;;;;5046220;28;20059;-64
2022/10/02 09:59:30;;;;;;;13.40;3.58;;;16.60;99.90;;;;;;5028733;28;20503;-64
2022/10/02 10:02:05;;;;;;;13.30;3.13;;;16.70;99.90;;;;;;5047859;28;20701;-63
2022/10/02 10:04:58;;;;;;;12.13;2.42;;;16.80;99.90;;;;;;5051275;28;20102;-64
2022/10/02 10:07:53;;;;;;;11.70;3.20;;;16.80;99.90;;;;;;5047647;28;20051;-66
2022/10/02 10:10:23;;;;;;;11.25;2.53;;;16.60;99.90;;;;;;5027467;28;20118;-64
2022/10/02 10:13:19;;;;;;;13.20;3.20;;;16.50;99.90;;;;;;5052110;28;20055;-65
2022/10/02 10:16:04;;;;;;;17.08;4.18;;;16.40;99.90;;;;;;5051085;28;20538;-65
2022/10/02 10:18:50;;;;;;;13.27;3.38;;;16.50;99.90;;;;;;5026947;28;20048;-66
2022/10/02 10:21:49;;;;;;;11.98;2.85;;;16.60;99.90;;;;;;5045519;28;20380;-64
2022/10/02 10:24:43;;;;;;;16.45;3.22;;;16.90;99.90;;;;;;5035940;28;20048;-64
2022/10/02 10:27:28;;;;;;;12.32;3.25;;;17.00;99.90;;;;;;5050417;28;20053;-64
2022/10/02 10:30:22;;;;;;;10.95;2.90;;;17.10;99.90;;;;;;5052282;28;20162;-64
2022/10/02 10:32:53;;;;;;;15.38;3.67;;;17.20;99.90;;;;;;5052015;28;20071;-65
2022/10/02 10:35:57;;;;;;;12.65;3.42;;;17.50;99.90;;;;;;5033357;28;20061;-65
2022/10/02 10:38:32;;;;;;;17.50;4.07;;;17.80;99.90;;;;;;4964950;28;20054;-63
2022/10/02 10:41:31;;;;;;;12.82;3.25;;;17.90;99.90;;;;;;4960959;28;20043;-64
2022/10/02 10:44:18;;;;;;;16.83;4.15;;;17.90;99.90;;;;;;4965199;28;20050;-64
2022/10/02 10:46:55;;;;;;;14.35;3.42;;;18.00;99.90;;;;;;4964053;28;20042;-64
2022/10/02 10:49:56;;;;;;;10.82;3.40;;;17.70;99.90;;;;;;4977288;28;20805;-65
2022/10/02 10:52:50;;;;;;;11.70;3.58;;;17.50;99.90;;;;;;4970804;28;20109;-64
2022/10/02 10:55:45;;;;;;;13.68;3.75;;;17.30;99.90;;;;;;4979337;28;20085;-64
2022/10/02 10:58:20;;;;;;;18.67;3.85;;;17.00;99.90;;;;;;4952074;28;20051;-63
2022/10/02 11:01:29;;;;;;;17.08;4.30;;;16.80;99.90;;;;;;4961940;28;20054;-64
2022/10/02 11:04:14;;;;;;;16.77;4.05;;;16.60;99.90;;;;;;4900631;29;20066;-64
2022/10/02 11:07:06;;;;;;;14.85;3.55;;;16.60;99.90;;;;;;4906115;29;20550;-63
2022/10/02 11:09:38;;;;;;;20.38;3.83;;;16.40;99.90;;;;;;4951689;28;20065;-64
2022/10/02 11:12:27;;;;;;;20.00;3.85;;;16.30;99.90;;;;;;4976569;28;20113;-65
2022/10/02 11:15:16;;;;;;;15.73;3.60;;;16.30;99.90;;;;;;4993429;28;20061;-64
2022/10/02 11:18:05;;;;;;;12.52;3.58;;;16.20;99.90;;;;;;4977063;28;20057;-63
2022/10/02 11:20:49;;;;;;;14.27;3.67;;;16.10;99.90;;;;;;4982096;28;20548;-64
2022/10/02 11:23:40;;;;;;;17.63;3.88;;;16.10;99.90;;;;;;4991762;28;20173;-64
2022/10/02 11:26:35;;;;;;;15.18;3.85;;;16.00;99.90;;;;;;4983737;28;20433;-64
2022/10/02 11:29:19;;;;;;;17.42;3.72;;;16.00;99.90;;;;;;4987855;28;20633;-64
2022/10/02 11:32:04;;;;;;;12.13;3.60;;;16.20;99.90;;;;;;4980724;28;20087;-65
2022/10/02 11:34:41;;;;;;;17.33;4.53;;;16.30;99.90;;;;;;5016008;28;20057;-64
2022/10/02 11:37:13;;;;;;;13.63;2.70;;;16.50;99.90;;;;;;5065628;28;20080;-65
2022/10/02 11:40:01;;;;;;;14.50;3.20;;;16.60;99.90;;;;;;5048087;28;20044;-65
2022/10/02 11:42:48;;;;;;;18.95;3.83;;;16.60;99.90;;;;;;5061501;28;20393;-64
2022/10/02 11:45:20;;;;;;;10.05;3.20;;;16.60;99.90;;;;;;5056025;28;20053;-65
2022/10/02 11:47:57;;;;;;;16.25;2.92;;;16.60;99.90;;;;;;5064621;28;20285;-64
2022/10/02 11:50:41;;;;;;;12.68;3.35;;;16.60;99.90;;;;;;5062521;28;20572;-64
2022/10/02 11:53:30;;;;;;;13.18;2.95;;;16.50;99.90;;;;;;5056188;28;20055;-64
2022/10/02 11:56:30;;;;;;;11.32;3.40;;;16.50;99.90;;;;;;5058496;28;20492;-63
2022/10/02 11:59:21;;;;;;;16.08;4.22;;;16.50;99.90;;;;;;5037514;28;20702;-64
2022/10/02 12:02:10;;;;;;;16.13;3.40;;;16.50;99.90;;;;;;5024044;28;20416;-63
2022/10/02 12:05:04;;;;;;;16.10;3.35;;;16.40;99.90;;;;;;5058117;28;20053;-64
2022/10/02 12:08:02;;;;;;;12.57;3.40;;;16.30;99.90;;;;;;5045931;28;20144;-64
2022/10/02 12:11:01;;;;;;;18.13;3.20;;;16.10;99.90;;;;;;5028316;28;20080;-64
2022/10/02 12:13:42;;;;;;;13.00;3.60;;;16.00;99.90;;;;;;5047679;28;20123;-63
2022/10/02 12:16:18;;;;;;;13.27;2.78;;;15.80;99.90;;;;;;5065931;28;20045;-64
2022/10/02 12:18:46;;;;;;;16.65;3.60;;;15.70;99.90;;;;;;5044547;28;20553;-64
2022/10/02 12:27:42;;;;;;;13.20;3.25;;;15.90;99.90;;;;;;5053538;28;20064;-63
2022/10/02 12:30:18;;;;;;;15.43;2.90;;;16.10;99.90;;;;;;5056209;28;20108;-63
2022/10/02 12:33:07;;;;;;;14.35;2.88;;;16.20;99.90;;;;;;5046841;28;20048;-63
2022/10/02 12:36:13;;;;;;;17.25;3.60;;;16.30;99.90;;;;;;5053744;28;20052;-64
2022/10/02 12:38:51;;;;;;;11.95;3.63;;;16.40;99.90;;;;;;5034612;28;20068;-64
2022/10/02 12:41:58;;;;;;;9.65;2.67;;;16.40;99.90;;;;;;5064704;28;20063;-64
2022/10/02 12:44:45;;;;;;;12.15;3.20;;;16.50;99.90;;;;;;5002684;28;20104;-64
2022/10/02 12:47:27;;;;;;;11.73;2.70;;;16.50;99.90;;;;;;5008276;28;20151;-64
2022/10/02 12:50:22;;;;;;;12.63;3.47;;;16.30;99.90;;;;;;4995107;28;20131;-64
2022/10/02 12:53:05;;;;;;;12.50;2.72;;;16.10;99.90;;;;;;5017005;28;20067;-63
2022/10/02 12:56:03;;;;;;;14.93;3.50;;;15.90;99.90;;;;;;5022520;28;20461;-64
2022/10/02 12:58:57;;;;;;;14.88;3.13;;;15.80;99.90;;;;;;4966865;28;20061;-63
2022/10/02 13:01:29;;;;;;;15.65;2.70;;;15.80;99.90;;;;;;4979001;28;20046;-64
2022/10/02 13:04:22;;;;;;;17.02;4.18;;;15.90;99.90;;;;;;4994223;28;20064;-64
2022/10/02 13:07:15;;;;;;;14.27;2.65;;;16.10;99.90;;;;;;4955248;28;20437;-64
2022/10/02 13:10:18;;;;;;;24.52;3.35;;;16.10;99.90;;;;;;4978619;28;20133;-64
2022/10/02 13:13:30;;;;;;;11.27;2.55;;;16.10;99.90;;;;;;4935219;29;20051;-64
2022/10/02 13:16:07;;;;;;;8.95;2.70;;;16.20;99.90;;;;;;4903582;29;20056;-64
2022/10/02 13:19:11;;;;;;;11.07;2.97;;;16.20;99.90;;;;;;4904919;29;20068;-64
2022/10/02 13:21:40;;;;;;;;;;;16.20;99.90;;;;;;4900331;29;20060;-64
2022/10/02 13:24:24;;;;;;;10.95;2.78;;;16.20;99.90;;;;;;4905554;29;19931;-64
2022/10/02 13:26:56;;;;;;;18.20;4.03;;;16.20;99.90;;;;;;4905179;29;20071;-64
2022/10/02 13:29:41;;;;;;;13.88;2.80;;;16.30;99.90;;;;;;4903799;29;20536;-64
2022/10/02 13:32:47;;;;;;;12.75;3.25;;;16.30;99.90;;;;;;4904982;29;20063;-64
2022/10/02 13:35:41;;;;;;;9.05;2.15;;;16.30;99.90;;;;;;4941980;28;20589;-64
2022/10/02 13:38:12;;;;;;;11.82;3.28;;;16.10;99.90;;;;;;4949763;28;20785;-63
2022/10/02 13:41:01;;;;;;;10.80;2.90;;;16.00;99.90;;;;;;4960338;28;20559;-63
2022/10/02 13:43:55;;;;;;;12.95;3.22;;;15.90;99.90;;;;;;4965194;28;20043;-63
2022/10/02 13:46:39;;;;;;;15.40;2.88;;;15.80;99.90;;;;;;4961332;28;20089;-63
2022/10/02 13:49:36;;;;;;;10.65;2.58;;;15.80;99.90;;;;;;4978781;28;20251;-64
2022/10/02 13:52:21;;;;;;;15.20;3.22;;;15.80;99.90;;;;;;5007277;28;20857;-64
2022/10/02 13:55:08;;;;;;;11.15;2.88;;;15.80;99.90;;;;;;5040433;28;20602;-63
2022/10/02 13:57:40;;;;;;;13.75;3.20;;;15.90;99.90;;;;;;5044309;28;20049;-63
2022/10/02 14:00:27;;;;;;;18.75;4.05;;;15.90;99.90;;;;;;5032148;28;20151;-65
2022/10/02 14:03:14;;;;;;;14.75;3.40;;;15.80;99.90;;;;;;5055948;28;20098;-63
2022/10/02 14:06:09;;;;;;;10.88;2.85;;;15.80;99.90;;;;;;5041678;28;20041;-61
2022/10/02 14:09:05;;;;;;;13.05;2.85;;;15.70;99.90;;;;;;4977165;28;20058;-63